Time;durP1;ratioP1;P1;durP2;ratioP2;P2;SDS_P1;SDS_P2;PMS_P1;PMS_P2;Temp;Humidity;BMP_temperature;BMP_pressure;BME280_temperature;BME280_humidity;BME280_pressure;Samples;Min_cycle;Max_cycle;Signal;HPM_P1;HPM_P2
2023/03/20 00:00:38;;;;;;;33.57;23.63;;;;;;;;;;5070649;28;20282;-61
2023/03/20 00:03:04;;;;;;;32.87;23.57;;;;;;;;;;5074456;28;20226;-61
2023/03/20 00:05:31;;;;;;;31.20;22.47;;;;;;;;;;5074116;28;20202;-62
2023/03/20 00:07:57;;;;;;;33.43;23.50;;;;;;;;;;5074484;28;20282;-61
2023/03/20 00:10:25;;;;;;;29.50;22.30;;;;;;;;;;5074338;28;20676;-56
2023/03/20 00:12:52;;;;;;;33.60;23.47;;;;;;;;;;5074134;28;20253;-61
2023/03/20 00:15:23;;;;;;;31.17;22.63;;;;;;;;;;5074122;28;20203;-57
2023/03/20 00:17:49;;;;;;;27.27;21.60;;;;;;;;;;5074194;28;20218;-57
2023/03/20 00:20:16;;;;;;;30.07;21.40;;;;;;;;;;5073861;28;20701;-57
2023/03/20 00:22:42;;;;;;;31.73;22.13;;;;;;;;;;5073962;28;20576;-57
2023/03/20 00:25:12;;;;;;;29.33;20.83;;;;;;;;;;5074174;28;20286;-57
2023/03/20 00:27:38;;;;;;;29.13;21.83;;;;;;;;;;5073868;28;20199;-57
2023/03/20 00:30:13;;;;;;;30.30;20.73;;;;;;;;;;5073873;28;20230;-57
2023/03/20 00:32:39;;;;;;;28.80;19.87;;;;;;;;;;5073954;28;20226;-57
2023/03/20 00:35:14;;;;;;;28.70;21.20;;;;;;;;;;5073911;28;20661;-57
2023/03/20 00:37:40;;;;;;;28.33;19.00;;;;;;;;;;5073719;28;20294;-58
2023/03/20 00:40:07;;;;;;;26.23;18.23;;;;;;;;;;5073716;28;20310;-57
2023/03/20 00:42:35;;;;;;;27.27;18.43;;;;;;;;;;5073354;28;20269;-57
2023/03/20 00:45:01;;;;;;;25.80;18.83;;;;;;;;;;5072216;28;20271;-57
2023/03/20 00:47:29;;;;;;;25.27;18.13;;;;;;;;;;5073495;28;20290;-57
2023/03/20 00:49:55;;;;;;;26.40;18.33;;;;;;;;;;5073517;28;20203;-58
2023/03/20 00:52:21;;;;;;;26.67;18.83;;;;;;;;;;5073449;28;20210;-57
2023/03/20 00:54:47;;;;;;;25.43;17.97;;;;;;;;;;5073014;28;20204;-57
2023/03/20 00:57:16;;;;;;;26.80;18.47;;;;;;;;;;5072922;28;20200;-57
2023/03/20 00:59:49;;;;;;;24.03;17.10;;;;;;;;;;5072696;28;20587;-57
2023/03/20 01:02:15;;;;;;;22.43;15.23;;;;;;;;;;5073035;28;20222;-57
2023/03/20 01:04:43;;;;;;;23.30;15.67;;;;;;;;;;5072731;28;20196;-57
2023/03/20 01:07:12;;;;;;;22.03;15.47;;;;;;;;;;5073154;28;20298;-57
2023/03/20 01:09:38;;;;;;;22.53;15.53;;;;;;;;;;5072826;28;20195;-57
2023/03/20 01:12:04;;;;;;;21.93;16.47;;;;;;;;;;5072622;28;20554;-57
2023/03/20 01:14:30;;;;;;;22.63;15.83;;;;;;;;;;5072556;28;20203;-57
2023/03/20 01:16:56;;;;;;;21.73;16.00;;;;;;;;;;5072762;28;20278;-57
2023/03/20 01:19:22;;;;;;;21.47;16.13;;;;;;;;;;5072869;28;20310;-57
2023/03/20 01:21:50;;;;;;;22.40;16.67;;;;;;;;;;5072636;28;20566;-57
2023/03/20 01:24:16;;;;;;;24.23;17.07;;;;;;;;;;5072467;28;20227;-57
2023/03/20 01:26:42;;;;;;;24.67;16.93;;;;;;;;;;5072259;28;20249;-57
2023/03/20 01:29:16;;;;;;;24.73;17.27;;;;;;;;;;5072582;28;20191;-57
2023/03/20 01:31:42;;;;;;;26.43;17.27;;;;;;;;;;5072368;28;20199;-57
2023/03/20 01:34:08;;;;;;;28.73;17.63;;;;;;;;;;5072324;28;20196;-57
2023/03/20 01:36:36;;;;;;;22.03;15.97;;;;;;;;;;5072197;28;20662;-57
2023/03/20 01:39:03;;;;;;;22.80;16.47;;;;;;;;;;5072100;28;20814;-57
2023/03/20 01:41:30;;;;;;;20.90;16.27;;;;;;;;;;5072058;28;20203;-57
2023/03/20 01:43:56;;;;;;;23.90;16.80;;;;;;;;;;5072051;28;20597;-57
2023/03/20 01:46:23;;;;;;;24.13;16.90;;;;;;;;;;5071947;28;20239;-57
2023/03/20 01:48:56;;;;;;;26.20;17.97;;;;;;;;;;5071830;28;20291;-57
2023/03/20 01:51:23;;;;;;;25.90;17.53;;;;;;;;;;5072086;28;20191;-57
2023/03/20 01:53:51;;;;;;;23.03;16.70;;;;;;;;;;5071810;28;20199;-57
2023/03/20 01:56:19;;;;;;;23.50;16.43;;;;;;;;;;5071433;28;20192;-57
2023/03/20 01:58:47;;;;;;;22.97;15.87;;;;;;;;;;5071697;28;20244;-57
2023/03/20 02:01:14;;;;;;;23.47;15.27;;;;;;;;;;5071845;28;20200;-57
2023/03/20 02:03:43;;;;;;;21.03;15.43;;;;;;;;;;5071851;28;20278;-57
2023/03/20 02:06:10;;;;;;;20.17;14.43;;;;;;;;;;5071759;28;20209;-57
2023/03/20 02:08:40;;;;;;;20.47;14.87;;;;;;;;;;5071595;28;20249;-57
2023/03/20 02:11:06;;;;;;;20.80;14.37;;;;;;;;;;5071669;28;20253;-57
2023/03/20 02:13:34;;;;;;;20.37;14.47;;;;;;;;;;5071495;28;20662;-57
2023/03/20 02:16:04;;;;;;;18.53;13.30;;;;;;;;;;5071580;28;20556;-57
2023/03/20 02:18:31;;;;;;;18.97;13.33;;;;;;;;;;5071604;28;20215;-57
2023/03/20 02:21:08;;;;;;;19.50;13.10;;;;;;;;;;5071679;28;20210;-57
2023/03/20 02:23:52;;;;;;;17.17;12.53;;;;;;;;;;5071430;28;20190;-58
2023/03/20 02:26:26;;;;;;;20.33;13.23;;;;;;;;;;5061154;28;20290;-57
2023/03/20 02:29:12;;;;;;;16.20;12.00;;;;;;;;;;5071462;28;20201;-57
2023/03/20 02:32:04;;;;;;;15.77;12.70;;;;;;;;;;5071431;28;20559;-57
2023/03/20 02:34:50;;;;;;;16.87;12.53;;;;;;;;;;5071207;28;20199;-57
2023/03/20 02:37:31;;;;;;;15.40;11.53;;;;;;;;;;5071378;28;20191;-57
2023/03/20 02:40:03;;;;;;;14.50;10.77;;;;;;;;;;5068860;28;20334;-57
2023/03/20 02:42:35;;;;;;;17.53;11.90;;;;;;;;;;5071127;28;20701;-57
2023/03/20 02:45:05;;;;;;;16.13;11.13;;;;;;;;;;5071012;28;20749;-57
2023/03/20 02:47:35;;;;;;;14.63;11.70;;;;;;;;;;5071167;28;20264;-57
2023/03/20 02:50:09;;;;;;;14.70;11.77;;;;;;;;;;5071219;28;20208;-57
2023/03/20 02:52:42;;;;;;;15.07;11.33;;;;;;;;;;5071147;28;20191;-57
2023/03/20 02:55:15;;;;;;;14.53;11.10;;;;;;;;;;5071238;28;20191;-57
2023/03/20 02:57:43;;;;;;;15.90;10.50;;;;;;;;;;5071233;28;20666;-57
2023/03/20 03:00:11;;;;;;;16.17;11.80;;;;;;;;;;5071113;28;20630;-58
2023/03/20 03:02:39;;;;;;;17.77;11.27;;;;;;;;;;5071087;28;20205;-57
2023/03/20 03:05:15;;;;;;;14.17;10.23;;;;;;;;;;5071170;28;20204;-57
2023/03/20 03:07:42;;;;;;;12.83;10.27;;;;;;;;;;5071055;28;20206;-57
2023/03/20 03:10:10;;;;;;;15.53;11.27;;;;;;;;;;5074775;28;20234;-57
2023/03/20 03:12:40;;;;;;;13.07;9.80;;;;;;;;;;5075053;28;20299;-57
2023/03/20 03:15:13;;;;;;;13.53;9.93;;;;;;;;;;5075176;28;20196;-57
2023/03/20 03:17:39;;;;;;;14.30;9.77;;;;;;;;;;5075062;28;20301;-57
2023/03/20 03:20:08;;;;;;;12.47;9.83;;;;;;;;;;5074847;28;20243;-57
2023/03/20 03:22:35;;;;;;;12.00;8.93;;;;;;;;;;5074872;28;20202;-57
2023/03/20 03:25:01;;;;;;;13.97;9.57;;;;;;;;;;5074729;28;20207;-57
2023/03/20 03:27:29;;;;;;;15.73;11.30;;;;;;;;;;5074719;28;20203;-57
2023/03/20 03:29:59;;;;;;;15.00;11.03;;;;;;;;;;5074806;28;20191;-57
2023/03/20 03:32:29;;;;;;;17.37;11.97;;;;;;;;;;5074906;28;20210;-57
2023/03/20 03:34:56;;;;;;;17.00;11.43;;;;;;;;;;5074918;28;20202;-57
2023/03/20 03:37:26;;;;;;;17.47;12.07;;;;;;;;;;5074894;28;20200;-57
2023/03/20 03:39:54;;;;;;;17.07;11.60;;;;;;;;;;5074524;28;20234;-57
2023/03/20 03:42:26;;;;;;;17.40;12.10;;;;;;;;;;5074614;28;20582;-57
2023/03/20 03:44:55;;;;;;;19.03;12.67;;;;;;;;;;5074528;28;20202;-56
2023/03/20 03:47:24;;;;;;;18.27;12.37;;;;;;;;;;5074672;28;20199;-57
2023/03/20 03:49:52;;;;;;;16.50;12.23;;;;;;;;;;5074362;28;20200;-57
2023/03/20 03:52:21;;;;;;;18.17;11.90;;;;;;;;;;5074326;28;20195;-57
2023/03/20 03:54:48;;;;;;;16.70;11.63;;;;;;;;;;5074089;28;20279;-57
2023/03/20 03:57:17;;;;;;;20.57;13.47;;;;;;;;;;5074361;28;20200;-57
2023/03/20 03:59:45;;;;;;;22.63;14.10;;;;;;;;;;5074043;28;20227;-57
2023/03/20 04:02:11;;;;;;;21.83;13.90;;;;;;;;;;5074293;28;20234;-57
2023/03/20 04:04:42;;;;;;;26.27;15.93;;;;;;;;;;5074313;28;20187;-57
2023/03/20 04:07:08;;;;;;;29.17;17.80;;;;;;;;;;5074276;28;20200;-57
2023/03/20 04:09:34;;;;;;;28.27;17.93;;;;;;;;;;5073924;28;20248;-57
2023/03/20 04:12:00;;;;;;;36.37;20.57;;;;;;;;;;5074064;28;20199;-57
2023/03/20 04:14:26;;;;;;;32.13;19.53;;;;;;;;;;5073916;28;20210;-57
2023/03/20 04:16:52;;;;;;;33.47;18.83;;;;;;;;;;5073831;28;20203;-57
2023/03/20 04:19:18;;;;;;;36.47;20.27;;;;;;;;;;5073470;28;20273;-57
2023/03/20 04:21:45;;;;;;;37.37;21.47;;;;;;;;;;5073643;28;20603;-57
2023/03/20 04:24:11;;;;;;;38.43;20.60;;;;;;;;;;5073696;28;20227;-58
2023/03/20 04:26:38;;;;;;;39.97;21.97;;;;;;;;;;5073660;28;20666;-57
2023/03/20 04:29:04;;;;;;;41.37;21.73;;;;;;;;;;5073812;28;20207;-57
2023/03/20 04:31:31;;;;;;;39.07;22.57;;;;;;;;;;5073514;28;20206;-57
2023/03/20 04:33:57;;;;;;;45.20;22.17;;;;;;;;;;5073520;28;20903;-58
2023/03/20 04:36:23;;;;;;;40.93;22.03;;;;;;;;;;5073689;28;20204;-57
2023/03/20 04:38:50;;;;;;;42.80;23.43;;;;;;;;;;5073247;28;20227;-57
2023/03/20 04:41:19;;;;;;;40.60;22.43;;;;;;;;;;5073435;28;20206;-56
2023/03/20 04:43:45;;;;;;;40.43;22.57;;;;;;;;;;5073248;28;20216;-56
2023/03/20 04:46:11;;;;;;;43.87;23.47;;;;;;;;;;5073245;28;20231;-56
2023/03/20 04:48:37;;;;;;;41.10;23.33;;;;;;;;;;5073416;28;20191;-58
2023/03/20 04:51:04;;;;;;;42.77;22.47;;;;;;;;;;5073311;28;20206;-56
2023/03/20 04:53:30;;;;;;;46.00;24.13;;;;;;;;;;5073206;28;20400;-56
2023/03/20 04:55:57;;;;;;;39.00;22.40;;;;;;;;;;5073053;28;20196;-55
2023/03/20 04:58:23;;;;;;;38.90;23.33;;;;;;;;;;5073341;28;20203;-56
2023/03/20 05:00:49;;;;;;;37.87;23.10;;;;;;;;;;5073088;28;20205;-56
2023/03/20 05:03:15;;;;;;;39.37;23.70;;;;;;;;;;5072984;28;20227;-57
2023/03/20 05:05:42;;;;;;;38.70;23.47;;;;;;;;;;5073136;28;20196;-56
2023/03/20 05:08:08;;;;;;;40.20;23.00;;;;;;;;;;5073110;28;20192;-56
2023/03/20 05:10:34;;;;;;;37.90;21.50;;;;;;;;;;5072787;28;20202;-56
2023/03/20 05:13:01;;;;;;;40.27;23.03;;;;;;;;;;5072980;28;20547;-56
2023/03/20 05:15:27;;;;;;;38.97;23.17;;;;;;;;;;5072853;28;20210;-57
2023/03/20 05:17:53;;;;;;;40.90;22.90;;;;;;;;;;5072972;28;20555;-57
2023/03/20 05:20:20;;;;;;;41.40;23.97;;;;;;;;;;5072678;28;20226;-57
2023/03/20 05:22:47;;;;;;;39.63;22.43;;;;;;;;;;5072793;28;20200;-58
2023/03/20 05:25:14;;;;;;;44.97;25.40;;;;;;;;;;5072581;28;20202;-57
2023/03/20 05:27:40;;;;;;;45.80;23.93;;;;;;;;;;5072641;28;20253;-57
2023/03/20 05:30:08;;;;;;;43.10;24.30;;;;;;;;;;5072727;28;20649;-57
2023/03/20 05:32:35;;;;;;;48.37;26.23;;;;;;;;;;5071734;28;20297;-58
2023/03/20 05:35:01;;;;;;;42.73;25.40;;;;;;;;;;5072501;28;20196;-58
2023/03/20 05:37:27;;;;;;;45.23;24.53;;;;;;;;;;5072343;28;20287;-58
2023/03/20 05:39:53;;;;;;;47.13;24.27;;;;;;;;;;5072286;28;20222;-58
2023/03/20 05:42:19;;;;;;;47.23;25.20;;;;;;;;;;5072072;28;20227;-58
2023/03/20 05:44:45;;;;;;;47.27;24.63;;;;;;;;;;5072169;28;20204;-57
2023/03/20 05:47:12;;;;;;;42.60;24.60;;;;;;;;;;5071899;28;20585;-57
2023/03/20 05:49:39;;;;;;;44.37;24.40;;;;;;;;;;5072213;28;20206;-57
2023/03/20 05:52:05;;;;;;;48.20;25.83;;;;;;;;;;5071962;28;20687;-58
2023/03/20 05:54:31;;;;;;;44.30;25.40;;;;;;;;;;5071984;28;20193;-57
2023/03/20 05:56:57;;;;;;;46.73;25.57;;;;;;;;;;5071862;28;20286;-57
2023/03/20 05:59:23;;;;;;;46.17;25.80;;;;;;;;;;5071993;28;20307;-57
2023/03/20 06:01:49;;;;;;;42.77;25.77;;;;;;;;;;5072006;28;20665;-58
2023/03/20 06:04:16;;;;;;;41.00;24.87;;;;;;;;;;5071726;28;20769;-57
2023/03/20 06:06:42;;;;;;;45.53;26.17;;;;;;;;;;5071925;28;20211;-57
2023/03/20 06:09:08;;;;;;;46.07;26.20;;;;;;;;;;5071874;28;20196;-57
2023/03/20 06:11:34;;;;;;;43.50;26.70;;;;;;;;;;5071673;28;20658;-57
2023/03/20 06:14:00;;;;;;;44.57;25.73;;;;;;;;;;5071401;28;20211;-57
2023/03/20 06:16:26;;;;;;;43.77;27.33;;;;;;;;;;5070983;28;20563;-57
2023/03/20 06:18:53;;;;;;;44.63;27.07;;;;;;;;;;5071215;28;20226;-57
2023/03/20 06:21:20;;;;;;;43.93;26.53;;;;;;;;;;5071151;28;20211;-57
2023/03/20 06:23:46;;;;;;;45.90;26.63;;;;;;;;;;5071265;28;20199;-57
2023/03/20 06:26:12;;;;;;;39.90;25.63;;;;;;;;;;5071354;28;20556;-57
2023/03/20 06:28:38;;;;;;;42.80;26.50;;;;;;;;;;5071918;28;20200;-58
2023/03/20 06:31:04;;;;;;;40.60;26.63;;;;;;;;;;5071512;28;20222;-58
2023/03/20 06:33:30;;;;;;;41.00;24.93;;;;;;;;;;5071191;28;20204;-58
2023/03/20 06:35:56;;;;;;;42.60;26.33;;;;;;;;;;5071224;28;20241;-58
2023/03/20 06:38:24;;;;;;;39.40;26.07;;;;;;;;;;5071358;28;20282;-58
2023/03/20 06:40:50;;;;;;;37.73;25.13;;;;;;;;;;5071103;28;20234;-58
2023/03/20 06:43:16;;;;;;;37.97;24.80;;;;;;;;;;5071072;28;20215;-58
2023/03/20 06:45:42;;;;;;;32.23;22.87;;;;;;;;;;5071074;28;20323;-58
2023/03/20 06:48:08;;;;;;;37.73;24.07;;;;;;;;;;5071219;28;20206;-58
2023/03/20 06:50:34;;;;;;;34.90;23.33;;;;;;;;;;5071076;28;20634;-58
2023/03/20 06:53:01;;;;;;;34.40;23.03;;;;;;;;;;5071125;28;20203;-58
2023/03/20 06:55:28;;;;;;;34.30;22.53;;;;;;;;;;5071328;28;20191;-58
2023/03/20 06:57:54;;;;;;;29.67;20.57;;;;;;;;;;5071166;28;20666;-58
2023/03/20 07:00:21;;;;;;;31.47;21.73;;;;;;;;;;5070965;28;20223;-58
2023/03/20 07:02:47;;;;;;;35.17;21.40;;;;;;;;;;5071109;28;20516;-58
2023/03/20 07:05:13;;;;;;;33.33;21.80;;;;;;;;;;5071167;28;20620;-57
2023/03/20 07:07:40;;;;;;;31.87;21.47;;;;;;;;;;5071075;28;20654;-58
2023/03/20 07:10:08;;;;;;;29.73;20.10;;;;;;;;;;5071075;28;20184;-57
2023/03/20 07:12:36;;;;;;;31.63;21.00;;;;;;;;;;5071096;28;20265;-58
2023/03/20 07:15:02;;;;;;;28.13;20.20;;;;;;;;;;5070931;28;20216;-55
2023/03/20 07:17:28;;;;;;;26.30;19.30;;;;;;;;;;5070919;28;20200;-58
2023/03/20 07:19:54;;;;;;;26.43;19.73;;;;;;;;;;5070613;28;20234;-57
2023/03/20 07:22:21;;;;;;;26.80;18.87;;;;;;;;;;5071053;28;20192;-56
2023/03/20 07:24:47;;;;;;;31.20;19.33;;;;;;;;;;5071041;28;20645;-56
2023/03/20 07:27:13;;;;;;;30.00;20.93;;;;;;;;;;5070977;28;20199;-57
2023/03/20 07:29:41;;;;;;;25.43;17.97;;;;;;;;;;5070993;28;20188;-56
2023/03/20 07:32:07;;;;;;;26.63;18.13;;;;;;;;;;5070924;28;20600;-57
2023/03/20 07:34:33;;;;;;;21.63;16.00;;;;;;;;;;5070881;28;20294;-57
2023/03/20 07:36:59;;;;;;;22.50;16.73;;;;;;;;;;5070710;28;20206;-56
2023/03/20 07:39:25;;;;;;;22.37;15.27;;;;;;;;;;5070953;28;20685;-57
2023/03/20 07:41:51;;;;;;;20.20;15.10;;;;;;;;;;5070675;28;20216;-56
2023/03/20 07:44:18;;;;;;;18.57;14.27;;;;;;;;;;5070846;28;20198;-56
2023/03/20 07:46:48;;;;;;;18.80;14.20;;;;;;;;;;5070591;28;20239;-56
2023/03/20 07:49:17;;;;;;;19.23;13.97;;;;;;;;;;5070714;28;20199;-56
2023/03/20 07:51:43;;;;;;;15.37;11.80;;;;;;;;;;5070476;28;20223;-56
2023/03/20 07:54:09;;;;;;;14.60;11.33;;;;;;;;;;5071247;28;20278;-56
2023/03/20 07:56:35;;;;;;;17.37;11.80;;;;;;;;;;5074378;28;20211;-56
2023/03/20 07:59:01;;;;;;;14.60;11.60;;;;;;;;;;5074125;28;20763;-57
2023/03/20 08:01:27;;;;;;;14.27;10.53;;;;;;;;;;5074273;28;20287;-57
2023/03/20 08:03:54;;;;;;;12.83;11.03;;;;;;;;;;5074446;28;20222;-57
2023/03/20 08:06:20;;;;;;;13.60;11.27;;;;;;;;;;5074269;28;20204;-56
2023/03/20 08:08:46;;;;;;;13.77;11.07;;;;;;;;;;5074064;28;20688;-56
2023/03/20 08:11:12;;;;;;;12.10;9.97;;;;;;;;;;5074032;28;20195;-56
2023/03/20 08:13:38;;;;;;;14.33;10.10;;;;;;;;;;5074178;28;20203;-57
2023/03/20 08:16:04;;;;;;;14.07;10.43;;;;;;;;;;5073793;28;20233;-57
2023/03/20 08:18:30;;;;;;;11.73;9.77;;;;;;;;;;5073949;28;20219;-58
2023/03/20 08:20:58;;;;;;;13.27;10.93;;;;;;;;;;5073832;28;20704;-58
2023/03/20 08:23:24;;;;;;;14.00;11.17;;;;;;;;;;5074017;28;20583;-57
2023/03/20 08:25:51;;;;;;;11.20;10.00;;;;;;;;;;5073621;28;20692;-58
2023/03/20 08:28:17;;;;;;;12.60;9.47;;;;;;;;;;5073711;28;20210;-58
2023/03/20 08:30:43;;;;;;;13.43;10.40;;;;;;;;;;5073442;28;20202;-58
2023/03/20 08:33:09;;;;;;;13.30;10.07;;;;;;;;;;5073858;28;20207;-57
2023/03/20 08:35:36;;;;;;;13.57;10.67;;;;;;;;;;5073603;28;20252;-58
2023/03/20 08:38:03;;;;;;;15.83;11.03;;;;;;;;;;5073521;28;20195;-58
2023/03/20 08:40:29;;;;;;;14.37;10.97;;;;;;;;;;5073651;28;20219;-58
2023/03/20 08:42:55;;;;;;;14.37;11.80;;;;;;;;;;5073489;28;20219;-58
2023/03/20 08:45:24;;;;;;;14.93;11.27;;;;;;;;;;5073378;28;20267;-58
2023/03/20 08:47:50;;;;;;;14.50;10.73;;;;;;;;;;5073195;28;20200;-61
2023/03/20 08:50:17;;;;;;;12.70;10.20;;;;;;;;;;5073211;28;20196;-61
2023/03/20 08:52:43;;;;;;;13.50;11.23;;;;;;;;;;5073105;28;20257;-68
2023/03/20 08:55:11;;;;;;;11.93;10.27;;;;;;;;;;5073332;28;20268;-69
2023/03/20 08:57:37;;;;;;;16.30;11.90;;;;;;;;;;5073268;28;20215;-68
2023/03/20 09:00:03;;;;;;;15.33;11.97;;;;;;;;;;5072998;28;20310;-58
2023/03/20 09:02:29;;;;;;;13.77;11.03;;;;;;;;;;5073066;28;20200;-58
2023/03/20 09:04:55;;;;;;;14.03;12.17;;;;;;;;;;5073222;28;20196;-60
2023/03/20 09:07:21;;;;;;;14.83;11.80;;;;;;;;;;5072242;28;20191;-60
2023/03/20 09:09:47;;;;;;;15.97;12.57;;;;;;;;;;5072861;28;20202;-59
2023/03/20 09:12:15;;;;;;;15.87;11.60;;;;;;;;;;5072810;28;20203;-59
2023/03/20 09:14:41;;;;;;;15.07;11.40;;;;;;;;;;5072881;28;20210;-59
2023/03/20 09:17:07;;;;;;;14.83;11.23;;;;;;;;;;5073010;28;20204;-59
2023/03/20 09:19:33;;;;;;;12.37;11.07;;;;;;;;;;5072641;28;20327;-59
2023/03/20 09:21:59;;;;;;;18.57;11.17;;;;;;;;;;5072603;28;20563;-59
2023/03/20 09:24:25;;;;;;;12.20;10.57;;;;;;;;;;5073024;28;20204;-59
2023/03/20 09:26:51;;;;;;;14.80;10.53;;;;;;;;;;5072608;28;20219;-59
2023/03/20 09:29:21;;;;;;;15.07;10.43;;;;;;;;;;5072625;28;20195;-59
2023/03/20 09:31:47;;;;;;;15.17;10.33;;;;;;;;;;5072373;28;20206;-59
2023/03/20 09:34:13;;;;;;;12.13;9.73;;;;;;;;;;5072402;28;20207;-59
2023/03/20 09:36:39;;;;;;;10.90;9.20;;;;;;;;;;5072495;28;20199;-59
2023/03/20 09:39:05;;;;;;;10.73;9.40;;;;;;;;;;5071976;28;20227;-60
2023/03/20 09:41:35;;;;;;;13.47;10.10;;;;;;;;;;5072206;28;20207;-60
2023/03/20 09:44:14;;;;;;;12.50;9.83;;;;;;;;;;5072091;28;20696;-61
2023/03/20 09:46:55;;;;;;;12.27;9.70;;;;;;;;;;5071917;28;20288;-61
2023/03/20 09:49:25;;;;;;;13.67;10.07;;;;;;;;;;5072153;28;20615;-60
2023/03/20 09:51:52;;;;;;;10.87;9.33;;;;;;;;;;5072199;28;20191;-60
2023/03/20 09:54:23;;;;;;;13.30;10.30;;;;;;;;;;5071916;28;20206;-60
2023/03/20 09:56:50;;;;;;;12.40;9.63;;;;;;;;;;5071827;28;20661;-59
2023/03/20 09:59:17;;;;;;;13.23;9.80;;;;;;;;;;5071750;28;20269;-59
2023/03/20 10:01:45;;;;;;;12.27;10.03;;;;;;;;;;5071800;28;20200;-60
2023/03/20 10:04:13;;;;;;;11.10;9.60;;;;;;;;;;5071820;28;20207;-59
2023/03/20 10:06:40;;;;;;;11.20;8.70;;;;;;;;;;5071887;28;20260;-59
2023/03/20 10:09:12;;;;;;;10.47;8.23;;;;;;;;;;5071733;28;20203;-60
2023/03/20 10:11:50;;;;;;;11.47;7.90;;;;;;;;;;5071936;28;20191;-60
2023/03/20 10:14:24;;;;;;;9.00;6.90;;;;;;;;;;5071826;28;20380;-60
2023/03/20 10:16:55;;;;;;;8.00;6.93;;;;;;;;;;5071197;28;20196;-61
2023/03/20 10:19:23;;;;;;;7.83;6.00;;;;;;;;;;5071505;28;20215;-60
2023/03/20 10:21:52;;;;;;;7.47;5.73;;;;;;;;;;5071600;28;20206;-59
2023/03/20 10:24:27;;;;;;;8.93;5.40;;;;;;;;;;5071406;28;20657;-61
2023/03/20 10:26:54;;;;;;;6.83;5.27;;;;;;;;;;5071668;28;20203;-60
2023/03/20 10:29:27;;;;;;;6.03;4.40;;;;;;;;;;5071588;28;20329;-60
2023/03/20 10:31:57;;;;;;;6.77;5.20;;;;;;;;;;5071494;28;20220;-60
2023/03/20 10:34:34;;;;;;;7.17;5.40;;;;;;;;;;5071736;28;20306;-60
2023/03/20 10:37:09;;;;;;;8.97;5.87;;;;;;;;;;5071248;28;20209;-60
2023/03/20 10:39:40;;;;;;;7.27;5.60;;;;;;;;;;5071676;28;20226;-60
2023/03/20 10:42:13;;;;;;;7.83;5.80;;;;;;;;;;5071658;28;20223;-60
2023/03/20 10:44:41;;;;;;;6.70;5.17;;;;;;;;;;5071753;28;20257;-60
2023/03/20 10:47:09;;;;;;;9.60;5.10;;;;;;;;;;5064565;28;20572;-60
2023/03/20 10:49:39;;;;;;;6.20;4.50;;;;;;;;;;5071360;28;20745;-60
2023/03/20 10:52:09;;;;;;;6.73;4.63;;;;;;;;;;5071179;28;20294;-61
2023/03/20 10:54:40;;;;;;;7.07;4.93;;;;;;;;;;5071088;28;20550;-61
2023/03/20 10:57:12;;;;;;;5.80;4.50;;;;;;;;;;5070847;28;20204;-61
2023/03/20 10:59:40;;;;;;;4.73;4.10;;;;;;;;;;5071150;28;20223;-62
2023/03/20 11:02:10;;;;;;;6.13;4.50;;;;;;;;;;5071067;28;20290;-61
2023/03/20 11:04:37;;;;;;;12.97;8.60;;;;;;;;;;5071137;28;20204;-62
2023/03/20 11:07:06;;;;;;;5.83;4.50;;;;;;;;;;5069024;28;20207;-62
2023/03/20 11:09:32;;;;;;;10.53;6.03;;;;;;;;;;5069487;28;20195;-63
2023/03/20 11:12:00;;;;;;;6.03;4.43;;;;;;;;;;5070753;28;20195;-63
2023/03/20 11:14:31;;;;;;;4.37;3.83;;;;;;;;;;5070971;28;20206;-63
2023/03/20 11:17:00;;;;;;;5.70;3.73;;;;;;;;;;5070906;28;20195;-64
2023/03/20 11:19:26;;;;;;;5.13;3.63;;;;;;;;;;5070823;28;20606;-63
2023/03/20 11:21:59;;;;;;;4.63;3.63;;;;;;;;;;5070984;28;20200;-64
2023/03/20 11:24:26;;;;;;;5.53;3.47;;;;;;;;;;5061834;28;20204;-63
2023/03/20 11:26:55;;;;;;;4.33;3.57;;;;;;;;;;5068588;28;20633;-65
2023/03/20 11:29:26;;;;;;;5.87;3.33;;;;;;;;;;5065571;28;20684;-63
2023/03/20 11:31:52;;;;;;;5.33;3.10;;;;;;;;;;5074646;28;20210;-61
2023/03/20 11:34:23;;;;;;;6.27;3.90;;;;;;;;;;5074707;28;20295;-60
2023/03/20 11:37:00;;;;;;;5.40;3.77;;;;;;;;;;5074148;28;20203;-62
2023/03/20 11:39:28;;;;;;;6.90;3.33;;;;;;;;;;5074551;28;20338;-63
2023/03/20 11:41:55;;;;;;;7.13;3.50;;;;;;;;;;5074323;28;20223;-62
2023/03/20 11:44:25;;;;;;;5.40;3.13;;;;;;;;;;5074647;28;20223;-64
2023/03/20 11:46:55;;;;;;;5.60;3.20;;;;;;;;;;5074275;28;20272;-63
2023/03/20 11:49:26;;;;;;;4.03;3.20;;;;;;;;;;5074163;28;20199;-62
2023/03/20 11:51:53;;;;;;;4.27;3.10;;;;;;;;;;5074896;28;20320;-61
2023/03/20 11:54:22;;;;;;;5.83;3.00;;;;;;;;;;5074300;28;20606;-63
2023/03/20 11:56:52;;;;;;;6.60;3.10;;;;;;;;;;5074219;28;20241;-63
2023/03/20 11:59:18;;;;;;;4.10;2.83;;;;;;;;;;5074059;28;20227;-64
2023/03/20 12:01:47;;;;;;;5.17;2.90;;;;;;;;;;5073851;28;20227;-63
2023/03/20 12:04:15;;;;;;;6.43;3.57;;;;;;;;;;5074156;28;20204;-62
2023/03/20 12:06:43;;;;;;;7.80;3.43;;;;;;;;;;5073905;28;20654;-62
2023/03/20 12:09:12;;;;;;;6.10;3.43;;;;;;;;;;5073940;28;20230;-62
2023/03/20 12:11:43;;;;;;;7.33;3.63;;;;;;;;;;5074226;28;20279;-62
2023/03/20 12:14:13;;;;;;;4.17;3.30;;;;;;;;;;5074164;28;20192;-61
2023/03/20 12:16:41;;;;;;;5.40;3.20;;;;;;;;;;5073632;28;20200;-62
2023/03/20 12:19:11;;;;;;;5.47;3.80;;;;;;;;;;5073669;28;20274;-63
2023/03/20 12:21:40;;;;;;;5.50;3.43;;;;;;;;;;5073938;28;20206;-61
2023/03/20 12:24:09;;;;;;;5.97;4.10;;;;;;;;;;5073430;28;20214;-65
2023/03/20 12:26:37;;;;;;;4.93;3.80;;;;;;;;;;5073830;28;20196;-63
2023/03/20 12:29:06;;;;;;;5.10;3.60;;;;;;;;;;5071591;28;20441;-61
2023/03/20 12:31:35;;;;;;;4.40;3.30;;;;;;;;;;5071535;28;20723;-66
2023/03/20 12:34:04;;;;;;;6.90;3.70;;;;;;;;;;5070138;28;20446;-57
2023/03/20 12:36:31;;;;;;;6.17;3.60;;;;;;;;;;5073907;28;20282;-61
2023/03/20 12:38:58;;;;;;;6.67;3.70;;;;;;;;;;5073572;28;20657;-57
2023/03/20 12:41:25;;;;;;;5.97;3.80;;;;;;;;;;5073720;28;20233;-64
2023/03/20 12:44:04;;;;;;;5.13;3.67;;;;;;;;;;5073730;28;20211;-62
2023/03/20 12:46:36;;;;;;;6.40;4.27;;;;;;;;;;5073465;28;20243;-61
2023/03/20 12:49:07;;;;;;;5.03;3.53;;;;;;;;;;5073605;28;20227;-65
2023/03/20 12:51:40;;;;;;;5.57;3.87;;;;;;;;;;5073837;28;20200;-63
2023/03/20 12:54:14;;;;;;;4.93;3.90;;;;;;;;;;5073575;28;20299;-64
2023/03/20 12:56:51;;;;;;;8.07;4.60;;;;;;;;;;5073665;28;20673;-64
2023/03/20 12:59:20;;;;;;;8.40;3.93;;;;;;;;;;5073632;28;20206;-62
2023/03/20 13:01:51;;;;;;;5.40;4.30;;;;;;;;;;5073458;28;20199;-63
2023/03/20 13:04:39;;;;;;;6.70;4.27;;;;;;;;;;5073582;28;20290;-65
2023/03/20 13:07:07;;;;;;;5.90;4.10;;;;;;;;;;5073649;28;20199;-64
2023/03/20 13:09:51;;;;;;;6.47;3.67;;;;;;;;;;5073445;28;20291;-64
2023/03/20 13:12:25;;;;;;;4.87;3.30;;;;;;;;;;5073625;28;20195;-64
2023/03/20 13:14:53;;;;;;;4.57;3.63;;;;;;;;;;5073410;28;20205;-64
2023/03/20 13:17:24;;;;;;;4.33;3.50;;;;;;;;;;5073310;28;20195;-63
2023/03/20 13:19:55;;;;;;;4.77;3.30;;;;;;;;;;5073306;28;20219;-64
2023/03/20 13:22:25;;;;;;;5.73;3.90;;;;;;;;;;5073294;28;20206;-63
2023/03/20 13:24:54;;;;;;;6.60;3.97;;;;;;;;;;5073182;28;20187;-64
2023/03/20 13:27:27;;;;;;;5.60;3.53;;;;;;;;;;5073323;28;20241;-63
2023/03/20 13:29:56;;;;;;;4.37;3.67;;;;;;;;;;5073380;28;20192;-64
2023/03/20 13:32:30;;;;;;;5.33;3.53;;;;;;;;;;5073291;28;20260;-64
2023/03/20 13:35:07;;;;;;;5.03;3.33;;;;;;;;;;5072940;28;20205;-64
2023/03/20 13:37:35;;;;;;;6.00;3.60;;;;;;;;;;5072979;28;20657;-63
2023/03/20 13:40:04;;;;;;;4.67;2.87;;;;;;;;;;5072602;28;20242;-65
2023/03/20 13:42:33;;;;;;;5.00;3.43;;;;;;;;;;5072811;28;20215;-65
2023/03/20 13:45:04;;;;;;;5.27;3.70;;;;;;;;;;5072506;28;20294;-64
2023/03/20 13:47:33;;;;;;;4.80;3.10;;;;;;;;;;5072511;28;20249;-64
2023/03/20 13:50:02;;;;;;;5.17;3.43;;;;;;;;;;5072365;28;20207;-64
2023/03/20 13:52:30;;;;;;;5.87;3.63;;;;;;;;;;5072053;28;20199;-64
2023/03/20 13:55:01;;;;;;;5.30;3.10;;;;;;;;;;5072473;28;20345;-64
2023/03/20 13:57:38;;;;;;;4.33;3.00;;;;;;;;;;5072624;28;20195;-64
2023/03/20 14:00:07;;;;;;;7.63;3.50;;;;;;;;;;5072358;28;20227;-65
2023/03/20 14:02:40;;;;;;;6.37;3.47;;;;;;;;;;5072210;28;20199;-64
2023/03/20 14:05:11;;;;;;;5.63;3.60;;;;;;;;;;5072418;28;20294;-65
2023/03/20 14:07:38;;;;;;;3.90;3.40;;;;;;;;;;5072456;28;20229;-63
2023/03/20 14:10:22;;;;;;;6.00;3.60;;;;;;;;;;5072156;28;20286;-63
2023/03/20 14:12:49;;;;;;;4.57;3.30;;;;;;;;;;5071516;28;20199;-63
2023/03/20 14:15:15;;;;;;;6.03;3.10;;;;;;;;;;5072062;28;20433;-64
2023/03/20 14:17:46;;;;;;;6.43;3.70;;;;;;;;;;5072238;28;20195;-65
2023/03/20 14:20:19;;;;;;;5.63;3.03;;;;;;;;;;5072244;28;20225;-65
2023/03/20 14:22:47;;;;;;;4.20;2.97;;;;;;;;;;5072228;28;20191;-65
2023/03/20 14:25:17;;;;;;;6.00;3.20;;;;;;;;;;5054314;28;20195;-64
2023/03/20 14:27:53;;;;;;;6.57;3.23;;;;;;;;;;5072271;28;20222;-65
2023/03/20 14:30:36;;;;;;;6.53;3.30;;;;;;;;;;5072248;28;20213;-65
2023/03/20 14:33:07;;;;;;;5.60;3.47;;;;;;;;;;5071927;28;20206;-65